sensor_id;sensor_type;location;lat;lon;timestamp;temperature;humidity
25504;DHT22;13410;52.114;5.718;2023-04-25T00:00:45;10.20;99.90
25504;DHT22;13410;52.114;5.718;2023-04-25T00:03:11;10.20;99.90
25504;DHT22;13410;52.114;5.718;2023-04-25T00:05:36;10.40;99.90
25504;DHT22;13410;52.114;5.718;2023-04-25T00:08:03;10.40;99.90
25504;DHT22;13410;52.114;5.718;2023-04-25T00:10:29;10.30;99.90
25504;DHT22;13410;52.114;5.718;2023-04-25T00:12:54;10.40;99.90
25504;DHT22;13410;52.114;5.718;2023-04-25T00:15:20;10.30;99.90
25504;DHT22;13410;52.114;5.718;2023-04-25T00:17:45;10.40;99.90
25504;DHT22;13410;52.114;5.718;2023-04-25T00:20:11;10.60;99.90
25504;DHT22;13410;52.114;5.718;2023-04-25T00:22:37;10.60;99.90
25504;DHT22;13410;52.114;5.718;2023-04-25T00:25:06;10.60;99.90
25504;DHT22;13410;52.114;5.718;2023-04-25T00:27:32;10.70;99.90
25504;DHT22;13410;52.114;5.718;2023-04-25T00:29:58;10.80;99.90
25504;DHT22;13410;52.114;5.718;2023-04-25T00:32:24;10.70;99.90
25504;DHT22;13410;52.114;5.718;2023-04-25T00:34:49;10.70;99.90
25504;DHT22;13410;52.114;5.718;2023-04-25T00:37:15;10.60;99.90
25504;DHT22;13410;52.114;5.718;2023-04-25T00:39:41;10.60;99.90
25504;DHT22;13410;52.114;5.718;2023-04-25T00:42:06;10.60;99.90
25504;DHT22;13410;52.114;5.718;2023-04-25T00:44:33;10.60;99.90
25504;DHT22;13410;52.114;5.718;2023-04-25T00:47:01;10.60;99.90
25504;DHT22;13410;52.114;5.718;2023-04-25T00:49:27;10.60;99.90
25504;DHT22;13410;52.114;5.718;2023-04-25T00:51:53;10.60;99.90
25504;DHT22;13410;52.114;5.718;2023-04-25T00:54:19;10.50;99.90
25504;DHT22;13410;52.114;5.718;2023-04-25T00:56:44;10.50;99.90
25504;DHT22;13410;52.114;5.718;2023-04-25T00:59:10;10.50;99.90
25504;DHT22;13410;52.114;5.718;2023-04-25T01:01:36;10.50;99.90
25504;DHT22;13410;52.114;5.718;2023-04-25T01:04:04;10.50;99.90
25504;DHT22;13410;52.114;5.718;2023-04-25T01:06:30;10.50;99.90
25504;DHT22;13410;52.114;5.718;2023-04-25T01:08:56;10.50;99.90
25504;DHT22;13410;52.114;5.718;2023-04-25T01:11:22;10.40;99.90
25504;DHT22;13410;52.114;5.718;2023-04-25T01:13:47;10.40;99.90
25504;DHT22;13410;52.114;5.718;2023-04-25T01:16:13;10.30;99.90
25504;DHT22;13410;52.114;5.718;2023-04-25T01:18:39;10.30;99.90
25504;DHT22;13410;52.114;5.718;2023-04-25T01:21:12;10.30;99.90
25504;DHT22;13410;52.114;5.718;2023-04-25T01:23:40;10.40;99.90
25504;DHT22;13410;52.114;5.718;2023-04-25T01:26:10;10.30;99.90
25504;DHT22;13410;52.114;5.718;2023-04-25T01:28:36;10.20;99.90
25504;DHT22;13410;52.114;5.718;2023-04-25T01:31:03;10.20;99.90
25504;DHT22;13410;52.114;5.718;2023-04-25T01:33:29;10.30;99.90
25504;DHT22;13410;52.114;5.718;2023-04-25T01:35:55;10.30;99.90
25504;DHT22;13410;52.114;5.718;2023-04-25T01:38:20;10.40;99.90
25504;DHT22;13410;52.114;5.718;2023-04-25T01:40:46;10.40;99.90
25504;DHT22;13410;52.114;5.718;2023-04-25T01:43:14;10.30;99.90
25504;DHT22;13410;52.114;5.718;2023-04-25T01:45:43;10.20;99.90
25504;DHT22;13410;52.114;5.718;2023-04-25T01:48:12;10.20;99.90
25504;DHT22;13410;52.114;5.718;2023-04-25T01:50:38;10.20;99.90
25504;DHT22;13410;52.114;5.718;2023-04-25T01:53:04;10.20;99.90
25504;DHT22;13410;52.114;5.718;2023-04-25T01:55:30;10.30;99.90
25504;DHT22;13410;52.114;5.718;2023-04-25T01:57:56;10.20;99.90
25504;DHT22;13410;52.114;5.718;2023-04-25T02:00:22;10.10;99.90
25504;DHT22;13410;52.114;5.718;2023-04-25T02:02:47;10.20;99.90
25504;DHT22;13410;52.114;5.718;2023-04-25T02:05:13;10.20;99.90
25504;DHT22;13410;52.114;5.718;2023-04-25T02:07:39;10.20;99.90
25504;DHT22;13410;52.114;5.718;2023-04-25T02:10:05;10.20;99.90
25504;DHT22;13410;52.114;5.718;2023-04-25T02:12:31;10.20;99.90
25504;DHT22;13410;52.114;5.718;2023-04-25T02:14:57;10.10;99.90
25504;DHT22;13410;52.114;5.718;2023-04-25T02:17:22;10.10;99.90
25504;DHT22;13410;52.114;5.718;2023-04-25T02:19:48;10.20;99.90
25504;DHT22;13410;52.114;5.718;2023-04-25T02:22:14;10.00;99.90
25504;DHT22;13410;52.114;5.718;2023-04-25T02:24:39;9.90;99.90
25504;DHT22;13410;52.114;5.718;2023-04-25T02:27:05;10.00;99.90
25504;DHT22;13410;52.114;5.718;2023-04-25T02:29:31;10.00;99.90
25504;DHT22;13410;52.114;5.718;2023-04-25T02:31:57;9.90;99.90
25504;DHT22;13410;52.114;5.718;2023-04-25T02:34:22;9.90;99.90
25504;DHT22;13410;52.114;5.718;2023-04-25T02:36:48;9.90;99.90
25504;DHT22;13410;52.114;5.718;2023-04-25T02:39:16;9.80;99.90
25504;DHT22;13410;52.114;5.718;2023-04-25T02:41:42;9.80;99.90
25504;DHT22;13410;52.114;5.718;2023-04-25T02:44:07;9.80;99.90
25504;DHT22;13410;52.114;5.718;2023-04-25T02:46:33;9.70;99.90
25504;DHT22;13410;52.114;5.718;2023-04-25T02:48:58;9.70;99.90
25504;DHT22;13410;52.114;5.718;2023-04-25T02:51:24;9.60;99.90
25504;DHT22;13410;52.114;5.718;2023-04-25T02:53:50;9.60;99.90
25504;DHT22;13410;52.114;5.718;2023-04-25T02:56:15;9.50;99.90
25504;DHT22;13410;52.114;5.718;2023-04-25T02:58:41;9.50;99.90
25504;DHT22;13410;52.114;5.718;2023-04-25T03:01:06;9.50;99.90
25504;DHT22;13410;52.114;5.718;2023-04-25T03:03:32;9.50;99.90
25504;DHT22;13410;52.114;5.718;2023-04-25T03:05:57;9.60;99.90
25504;DHT22;13410;52.114;5.718;2023-04-25T03:08:23;9.50;99.90
25504;DHT22;13410;52.114;5.718;2023-04-25T03:10:50;9.60;99.90
25504;DHT22;13410;52.114;5.718;2023-04-25T03:13:17;9.50;99.90
25504;DHT22;13410;52.114;5.718;2023-04-25T03:15:43;9.50;99.90
25504;DHT22;13410;52.114;5.718;2023-04-25T03:18:08;9.50;99.90
25504;DHT22;13410;52.114;5.718;2023-04-25T03:20:34;9.50;99.90
25504;DHT22;13410;52.114;5.718;2023-04-25T03:22:59;9.50;99.90
25504;DHT22;13410;52.114;5.718;2023-04-25T03:25:25;9.60;99.90
25504;DHT22;13410;52.114;5.718;2023-04-25T03:27:51;9.40;99.90
25504;DHT22;13410;52.114;5.718;2023-04-25T03:30:16;9.50;99.90
25504;DHT22;13410;52.114;5.718;2023-04-25T03:32:42;9.50;99.90
25504;DHT22;13410;52.114;5.718;2023-04-25T03:35:07;9.50;99.90
25504;DHT22;13410;52.114;5.718;2023-04-25T03:37:33;9.40;99.90
25504;DHT22;13410;52.114;5.718;2023-04-25T03:39:59;9.30;99.90
25504;DHT22;13410;52.114;5.718;2023-04-25T03:42:24;9.40;99.90
25504;DHT22;13410;52.114;5.718;2023-04-25T03:44:51;9.40;99.90
25504;DHT22;13410;52.114;5.718;2023-04-25T03:47:17;9.30;99.90
25504;DHT22;13410;52.114;5.718;2023-04-25T03:49:42;9.30;99.90
25504;DHT22;13410;52.114;5.718;2023-04-25T03:52:08;9.20;99.90
25504;DHT22;13410;52.114;5.718;2023-04-25T03:54:34;9.20;99.90
25504;DHT22;13410;52.114;5.718;2023-04-25T03:56:59;9.20;99.90
25504;DHT22;13410;52.114;5.718;2023-04-25T03:59:25;9.20;99.90
25504;DHT22;13410;52.114;5.718;2023-04-25T04:01:51;9.20;99.90
25504;DHT22;13410;52.114;5.718;2023-04-25T04:04:17;9.20;99.90
25504;DHT22;13410;52.114;5.718;2023-04-25T04:06:43;9.10;99.90
25504;DHT22;13410;52.114;5.718;2023-04-25T04:09:09;9.10;99.90
25504;DHT22;13410;52.114;5.718;2023-04-25T04:11:37;9.10;99.90
25504;DHT22;13410;52.114;5.718;2023-04-25T04:14:04;9.10;99.90
25504;DHT22;13410;52.114;5.718;2023-04-25T04:16:30;9.10;99.90
25504;DHT22;13410;52.114;5.718;2023-04-25T04:18:56;9.00;99.90
25504;DHT22;13410;52.114;5.718;2023-04-25T04:21:22;9.00;99.90
25504;DHT22;13410;52.114;5.718;2023-04-25T04:23:48;9.10;99.90
25504;DHT22;13410;52.114;5.718;2023-04-25T04:26:14;9.20;99.90
25504;DHT22;13410;52.114;5.718;2023-04-25T04:28:42;9.20;99.90
25504;DHT22;13410;52.114;5.718;2023-04-25T04:31:08;9.20;99.90
25504;DHT22;13410;52.114;5.718;2023-04-25T04:33:34;9.30;99.90
25504;DHT22;13410;52.114;5.718;2023-04-25T04:36:00;9.40;99.90
25504;DHT22;13410;52.114;5.718;2023-04-25T04:38:26;9.40;99.90
25504;DHT22;13410;52.114;5.718;2023-04-25T04:40:51;9.50;99.90
25504;DHT22;13410;52.114;5.718;2023-04-25T04:43:17;9.50;99.90
25504;DHT22;13410;52.114;5.718;2023-04-25T04:45:44;9.60;99.90
25504;DHT22;13410;52.114;5.718;2023-04-25T04:48:09;9.60;99.90
25504;DHT22;13410;52.114;5.718;2023-04-25T04:50:37;9.70;99.90
25504;DHT22;13410;52.114;5.718;2023-04-25T04:53:04;9.80;99.90
25504;DHT22;13410;52.114;5.718;2023-04-25T04:55:29;9.80;99.90
25504;DHT22;13410;52.114;5.718;2023-04-25T04:57:55;9.90;99.90
25504;DHT22;13410;52.114;5.718;2023-04-25T05:00:21;10.10;99.90
25504;DHT22;13410;52.114;5.718;2023-04-25T05:02:47;10.20;99.90
25504;DHT22;13410;52.114;5.718;2023-04-25T05:05:12;10.50;99.90
25504;DHT22;13410;52.114;5.718;2023-04-25T05:07:38;10.50;99.90
25504;DHT22;13410;52.114;5.718;2023-04-25T05:10:04;10.30;99.90
25504;DHT22;13410;52.114;5.718;2023-04-25T05:12:29;10.30;99.90
25504;DHT22;13410;52.114;5.718;2023-04-25T05:14:55;10.50;99.90
25504;DHT22;13410;52.114;5.718;2023-04-25T05:17:21;10.60;99.90
25504;DHT22;13410;52.114;5.718;2023-04-25T05:19:46;10.70;99.90
25504;DHT22;13410;52.114;5.718;2023-04-25T05:22:12;10.90;99.90
25504;DHT22;13410;52.114;5.718;2023-04-25T05:24:37;11.10;99.90
25504;DHT22;13410;52.114;5.718;2023-04-25T05:27:03;11.30;99.90
25504;DHT22;13410;52.114;5.718;2023-04-25T05:29:29;11.50;99.90
25504;DHT22;13410;52.114;5.718;2023-04-25T05:31:54;11.60;99.90
25504;DHT22;13410;52.114;5.718;2023-04-25T05:34:20;11.70;99.90
25504;DHT22;13410;52.114;5.718;2023-04-25T05:36:45;11.60;99.90
25504;DHT22;13410;52.114;5.718;2023-04-25T05:39:16;11.70;99.90
25504;DHT22;13410;52.114;5.718;2023-04-25T05:41:42;11.70;99.90
25504;DHT22;13410;52.114;5.718;2023-04-25T05:44:08;11.70;99.90
25504;DHT22;13410;52.114;5.718;2023-04-25T05:46:34;11.90;99.90
25504;DHT22;13410;52.114;5.718;2023-04-25T05:49:00;12.00;99.90
25504;DHT22;13410;52.114;5.718;2023-04-25T05:51:25;11.80;99.90
25504;DHT22;13410;52.114;5.718;2023-04-25T05:53:51;11.80;99.90
25504;DHT22;13410;52.114;5.718;2023-04-25T05:56:16;11.90;99.90
25504;DHT22;13410;52.114;5.718;2023-04-25T05:58:42;11.70;99.90
25504;DHT22;13410;52.114;5.718;2023-04-25T06:01:07;11.90;99.90
25504;DHT22;13410;52.114;5.718;2023-04-25T06:03:34;12.10;99.90
25504;DHT22;13410;52.114;5.718;2023-04-25T06:05:59;12.50;99.90
25504;DHT22;13410;52.114;5.718;2023-04-25T06:08:25;12.80;99.90
25504;DHT22;13410;52.114;5.718;2023-04-25T06:10:50;13.00;99.90
25504;DHT22;13410;52.114;5.718;2023-04-25T06:13:16;13.10;99.90
25504;DHT22;13410;52.114;5.718;2023-04-25T06:15:42;13.20;99.90
25504;DHT22;13410;52.114;5.718;2023-04-25T06:18:08;13.30;99.90
25504;DHT22;13410;52.114;5.718;2023-04-25T06:20:33;13.70;99.90
25504;DHT22;13410;52.114;5.718;2023-04-25T06:22:59;13.60;99.90
25504;DHT22;13410;52.114;5.718;2023-04-25T06:25:24;13.70;99.90
25504;DHT22;13410;52.114;5.718;2023-04-25T06:27:50;13.60;99.90
25504;DHT22;13410;52.114;5.718;2023-04-25T06:30:16;13.30;99.90
25504;DHT22;13410;52.114;5.718;2023-04-25T06:32:43;13.30;99.90
25504;DHT22;13410;52.114;5.718;2023-04-25T06:35:09;13.20;99.90
25504;DHT22;13410;52.114;5.718;2023-04-25T06:37:35;13.30;99.90
25504;DHT22;13410;52.114;5.718;2023-04-25T06:40:01;13.30;99.90
25504;DHT22;13410;52.114;5.718;2023-04-25T06:42:27;13.10;99.90
25504;DHT22;13410;52.114;5.718;2023-04-25T06:44:53;12.80;99.90
25504;DHT22;13410;52.114;5.718;2023-04-25T06:47:18;12.80;99.90
25504;DHT22;13410;52.114;5.718;2023-04-25T06:49:44;13.70;99.90
25504;DHT22;13410;52.114;5.718;2023-04-25T06:52:09;14.70;99.90
25504;DHT22;13410;52.114;5.718;2023-04-25T06:54:36;15.20;99.90
25504;DHT22;13410;52.114;5.718;2023-04-25T06:57:01;16.00;99.90
25504;DHT22;13410;52.114;5.718;2023-04-25T06:59:27;16.20;99.90
25504;DHT22;13410;52.114;5.718;2023-04-25T07:01:52;16.70;99.90
25504;DHT22;13410;52.114;5.718;2023-04-25T07:04:18;17.20;99.90
25504;DHT22;13410;52.114;5.718;2023-04-25T07:06:44;17.80;99.90
25504;DHT22;13410;52.114;5.718;2023-04-25T07:09:10;18.20;99.90
25504;DHT22;13410;52.114;5.718;2023-04-25T07:11:36;17.90;99.90
25504;DHT22;13410;52.114;5.718;2023-04-25T07:14:02;17.00;99.90
25504;DHT22;13410;52.114;5.718;2023-04-25T07:16:27;16.80;99.90
25504;DHT22;13410;52.114;5.718;2023-04-25T07:18:53;15.80;99.90
25504;DHT22;13410;52.114;5.718;2023-04-25T07:21:19;14.90;99.90
25504;DHT22;13410;52.114;5.718;2023-04-25T07:23:44;14.10;99.90
25504;DHT22;13410;52.114;5.718;2023-04-25T07:26:10;13.60;99.90
25504;DHT22;13410;52.114;5.718;2023-04-25T07:28:35;13.20;99.90
25504;DHT22;13410;52.114;5.718;2023-04-25T07:31:01;12.90;99.90
25504;DHT22;13410;52.114;5.718;2023-04-25T07:33:27;12.80;99.90
25504;DHT22;13410;52.114;5.718;2023-04-25T07:35:53;12.90;99.90
25504;DHT22;13410;52.114;5.718;2023-04-25T07:38:18;12.80;99.90
25504;DHT22;13410;52.114;5.718;2023-04-25T07:40:44;12.70;99.90
25504;DHT22;13410;52.114;5.718;2023-04-25T07:43:10;12.40;99.90
25504;DHT22;13410;52.114;5.718;2023-04-25T07:45:39;12.50;99.90
25504;DHT22;13410;52.114;5.718;2023-04-25T07:48:05;12.80;99.90
25504;DHT22;13410;52.114;5.718;2023-04-25T07:50:31;13.00;99.90
25504;DHT22;13410;52.114;5.718;2023-04-25T07:52:56;13.00;99.90
25504;DHT22;13410;52.114;5.718;2023-04-25T07:55:22;13.40;99.90
25504;DHT22;13410;52.114;5.718;2023-04-25T07:57:47;13.90;99.90
25504;DHT22;13410;52.114;5.718;2023-04-25T08:00:13;13.80;99.90
25504;DHT22;13410;52.114;5.718;2023-04-25T08:02:40;14.00;99.90
25504;DHT22;13410;52.114;5.718;2023-04-25T08:05:06;13.70;99.90
25504;DHT22;13410;52.114;5.718;2023-04-25T08:07:33;13.40;99.90
25504;DHT22;13410;52.114;5.718;2023-04-25T08:09:59;13.00;99.90
25504;DHT22;13410;52.114;5.718;2023-04-25T08:12:24;12.60;99.90
25504;DHT22;13410;52.114;5.718;2023-04-25T08:14:50;12.50;99.90
25504;DHT22;13410;52.114;5.718;2023-04-25T08:17:16;12.60;99.90
25504;DHT22;13410;52.114;5.718;2023-04-25T08:19:41;12.10;99.90
25504;DHT22;13410;52.114;5.718;2023-04-25T08:22:07;11.90;99.90
25504;DHT22;13410;52.114;5.718;2023-04-25T08:24:32;11.30;99.90
25504;DHT22;13410;52.114;5.718;2023-04-25T08:26:58;11.30;99.90
25504;DHT22;13410;52.114;5.718;2023-04-25T08:29:24;11.40;99.90
25504;DHT22;13410;52.114;5.718;2023-04-25T08:31:51;11.40;99.90
25504;DHT22;13410;52.114;5.718;2023-04-25T08:34:18;11.10;99.90
25504;DHT22;13410;52.114;5.718;2023-04-25T08:36:44;11.20;99.90
25504;DHT22;13410;52.114;5.718;2023-04-25T08:39:10;11.20;99.90
25504;DHT22;13410;52.114;5.718;2023-04-25T08:41:37;11.10;99.90
25504;DHT22;13410;52.114;5.718;2023-04-25T08:44:03;11.10;99.90
25504;DHT22;13410;52.114;5.718;2023-04-25T08:46:30;11.30;99.90
25504;DHT22;13410;52.114;5.718;2023-04-25T08:49:00;11.50;99.90
25504;DHT22;13410;52.114;5.718;2023-04-25T08:51:27;11.80;99.90
25504;DHT22;13410;52.114;5.718;2023-04-25T08:53:54;12.10;99.90
25504;DHT22;13410;52.114;5.718;2023-04-25T08:56:21;12.40;99.90
25504;DHT22;13410;52.114;5.718;2023-04-25T08:58:49;12.90;99.90
25504;DHT22;13410;52.114;5.718;2023-04-25T09:01:18;13.50;99.90
25504;DHT22;13410;52.114;5.718;2023-04-25T09:03:44;13.70;99.90
25504;DHT22;13410;52.114;5.718;2023-04-25T09:06:13;13.50;99.90
25504;DHT22;13410;52.114;5.718;2023-04-25T09:08:39;13.00;99.90
25504;DHT22;13410;52.114;5.718;2023-04-25T09:11:06;13.10;99.90
25504;DHT22;13410;52.114;5.718;2023-04-25T09:13:32;13.10;99.90
25504;DHT22;13410;52.114;5.718;2023-04-25T09:15:58;13.10;99.90
25504;DHT22;13410;52.114;5.718;2023-04-25T09:18:24;13.10;99.90
25504;DHT22;13410;52.114;5.718;2023-04-25T09:20:52;12.70;99.90
25504;DHT22;13410;52.114;5.718;2023-04-25T09:23:19;12.60;99.90
25504;DHT22;13410;52.114;5.718;2023-04-25T09:25:48;13.10;99.90
25504;DHT22;13410;52.114;5.718;2023-04-25T09:28:13;13.20;99.90
25504;DHT22;13410;52.114;5.718;2023-04-25T09:30:39;12.60;99.90
25504;DHT22;13410;52.114;5.718;2023-04-25T09:33:06;12.20;99.90
25504;DHT22;13410;52.114;5.718;2023-04-25T09:35:40;12.30;99.90
25504;DHT22;13410;52.114;5.718;2023-04-25T09:38:11;12.40;99.90
25504;DHT22;13410;52.114;5.718;2023-04-25T09:40:47;12.50;99.90
25504;DHT22;13410;52.114;5.718;2023-04-25T09:43:22;12.80;99.90
25504;DHT22;13410;52.114;5.718;2023-04-25T09:45:48;12.90;99.90
25504;DHT22;13410;52.114;5.718;2023-04-25T09:48:19;12.80;99.90
25504;DHT22;13410;52.114;5.718;2023-04-25T09:50:45;12.70;99.90
25504;DHT22;13410;52.114;5.718;2023-04-25T09:53:13;12.70;99.90
25504;DHT22;13410;52.114;5.718;2023-04-25T09:55:40;13.00;99.90
25504;DHT22;13410;52.114;5.718;2023-04-25T09:58:06;12.90;99.90
25504;DHT22;13410;52.114;5.718;2023-04-25T10:00:33;12.80;99.90
25504;DHT22;13410;52.114;5.718;2023-04-25T10:03:05;12.90;99.90
25504;DHT22;13410;52.114;5.718;2023-04-25T10:05:32;13.00;99.90
25504;DHT22;13410;52.114;5.718;2023-04-25T10:08:02;12.40;99.90
25504;DHT22;13410;52.114;5.718;2023-04-25T10:10:30;11.80;99.90
25504;DHT22;13410;52.114;5.718;2023-04-25T10:13:03;11.40;99.90
25504;DHT22;13410;52.114;5.718;2023-04-25T10:15:28;11.20;99.90
25504;DHT22;13410;52.114;5.718;2023-04-25T10:17:56;11.10;99.90
25504;DHT22;13410;52.114;5.718;2023-04-25T10:20:22;11.20;99.90
25504;DHT22;13410;52.114;5.718;2023-04-25T10:22:48;11.20;99.90
25504;DHT22;13410;52.114;5.718;2023-04-25T10:25:14;11.40;99.90
25504;DHT22;13410;52.114;5.718;2023-04-25T10:27:40;11.60;99.90
25504;DHT22;13410;52.114;5.718;2023-04-25T10:30:13;11.90;99.90
25504;DHT22;13410;52.114;5.718;2023-04-25T10:32:41;11.80;99.90
25504;DHT22;13410;52.114;5.718;2023-04-25T10:37:37;12.10;99.90
25504;DHT22;13410;52.114;5.718;2023-04-25T10:40:09;12.50;99.90
25504;DHT22;13410;52.114;5.718;2023-04-25T10:42:35;12.80;99.90
25504;DHT22;13410;52.114;5.718;2023-04-25T10:45:07;13.00;99.90
25504;DHT22;13410;52.114;5.718;2023-04-25T10:47:36;13.10;99.90
25504;DHT22;13410;52.114;5.718;2023-04-25T10:50:09;13.00;99.90
25504;DHT22;13410;52.114;5.718;2023-04-25T10:52:34;12.80;99.90
25504;DHT22;13410;52.114;5.718;2023-04-25T10:55:03;12.80;99.90
25504;DHT22;13410;52.114;5.718;2023-04-25T10:57:46;13.30;99.90
25504;DHT22;13410;52.114;5.718;2023-04-25T11:00:19;13.30;99.90
25504;DHT22;13410;52.114;5.718;2023-04-25T11:02:55;12.90;99.90
25504;DHT22;13410;52.114;5.718;2023-04-25T11:05:33;12.80;99.90
25504;DHT22;13410;52.114;5.718;2023-04-25T11:07:59;12.90;99.90
25504;DHT22;13410;52.114;5.718;2023-04-25T11:10:26;13.20;99.90
25504;DHT22;13410;52.114;5.718;2023-04-25T11:12:52;13.40;99.90
25504;DHT22;13410;52.114;5.718;2023-04-25T11:15:18;13.60;99.90
25504;DHT22;13410;52.114;5.718;2023-04-25T11:17:44;13.50;99.90
25504;DHT22;13410;52.114;5.718;2023-04-25T11:20:12;13.60;99.90
25504;DHT22;13410;52.114;5.718;2023-04-25T11:22:39;13.70;99.90
25504;DHT22;13410;52.114;5.718;2023-04-25T11:25:11;13.60;99.90
25504;DHT22;13410;52.114;5.718;2023-04-25T11:27:53;13.50;99.90
25504;DHT22;13410;52.114;5.718;2023-04-25T11:30:20;13.30;99.90
25504;DHT22;13410;52.114;5.718;2023-04-25T11:32:46;13.30;99.90
25504;DHT22;13410;52.114;5.718;2023-04-25T11:35:12;13.70;99.90
25504;DHT22;13410;52.114;5.718;2023-04-25T11:37:42;14.20;99.90
25504;DHT22;13410;52.114;5.718;2023-04-25T11:40:08;14.60;99.90
25504;DHT22;13410;52.114;5.718;2023-04-25T11:42:37;13.60;99.90
25504;DHT22;13410;52.114;5.718;2023-04-25T11:45:04;12.40;99.90
25504;DHT22;13410;52.114;5.718;2023-04-25T11:47:31;11.70;99.90
25504;DHT22;13410;52.114;5.718;2023-04-25T11:50:01;11.10;99.90
25504;DHT22;13410;52.114;5.718;2023-04-25T11:52:39;11.20;99.90
25504;DHT22;13410;52.114;5.718;2023-04-25T11:55:19;11.50;99.90
25504;DHT22;13410;52.114;5.718;2023-04-25T11:57:50;12.10;99.90
25504;DHT22;13410;52.114;5.718;2023-04-25T12:02:44;12.70;99.90
25504;DHT22;13410;52.114;5.718;2023-04-25T12:05:10;12.90;99.90
25504;DHT22;13410;52.114;5.718;2023-04-25T12:07:36;13.40;99.90
25504;DHT22;13410;52.114;5.718;2023-04-25T12:10:07;14.00;99.90
25504;DHT22;13410;52.114;5.718;2023-04-25T12:12:34;14.40;99.90
25504;DHT22;13410;52.114;5.718;2023-04-25T12:15:14;14.60;99.90
25504;DHT22;13410;52.114;5.718;2023-04-25T12:17:48;15.10;99.90
25504;DHT22;13410;52.114;5.718;2023-04-25T12:20:15;15.20;99.90
25504;DHT22;13410;52.114;5.718;2023-04-25T12:22:42;15.20;99.90
25504;DHT22;13410;52.114;5.718;2023-04-25T12:25:11;15.30;99.90
25504;DHT22;13410;52.114;5.718;2023-04-25T12:27:38;15.30;99.90
25504;DHT22;13410;52.114;5.718;2023-04-25T12:30:05;14.80;99.90
25504;DHT22;13410;52.114;5.718;2023-04-25T12:32:32;14.70;99.90
25504;DHT22;13410;52.114;5.718;2023-04-25T12:34:57;14.90;99.90
25504;DHT22;13410;52.114;5.718;2023-04-25T12:37:23;14.70;99.90
25504;DHT22;13410;52.114;5.718;2023-04-25T12:39:49;15.00;99.90
25504;DHT22;13410;52.114;5.718;2023-04-25T12:42:14;14.90;99.90
25504;DHT22;13410;52.114;5.718;2023-04-25T12:44:40;14.40;99.90
25504;DHT22;13410;52.114;5.718;2023-04-25T12:47:06;13.70;99.90
25504;DHT22;13410;52.114;5.718;2023-04-25T12:49:32;13.20;99.90
25504;DHT22;13410;52.114;5.718;2023-04-25T12:51:58;12.80;99.90
25504;DHT22;13410;52.114;5.718;2023-04-25T12:54:23;12.90;99.90
25504;DHT22;13410;52.114;5.718;2023-04-25T12:56:50;13.20;99.90
25504;DHT22;13410;52.114;5.718;2023-04-25T12:59:16;13.20;99.90
25504;DHT22;13410;52.114;5.718;2023-04-25T13:01:42;13.60;99.90
25504;DHT22;13410;52.114;5.718;2023-04-25T13:04:08;14.20;99.90
25504;DHT22;13410;52.114;5.718;2023-04-25T13:06:33;14.40;99.90
25504;DHT22;13410;52.114;5.718;2023-04-25T13:08:59;14.20;99.90
25504;DHT22;13410;52.114;5.718;2023-04-25T13:11:24;13.80;99.90
25504;DHT22;13410;52.114;5.718;2023-04-25T13:13:50;13.60;99.90
25504;DHT22;13410;52.114;5.718;2023-04-25T13:16:15;13.50;99.90
25504;DHT22;13410;52.114;5.718;2023-04-25T13:18:41;13.70;99.90
25504;DHT22;13410;52.114;5.718;2023-04-25T13:21:11;14.10;99.90
25504;DHT22;13410;52.114;5.718;2023-04-25T13:23:37;14.20;99.90
25504;DHT22;13410;52.114;5.718;2023-04-25T13:26:03;13.90;99.90
25504;DHT22;13410;52.114;5.718;2023-04-25T13:28:28;13.70;99.90
25504;DHT22;13410;52.114;5.718;2023-04-25T13:30:54;13.80;99.90
25504;DHT22;13410;52.114;5.718;2023-04-25T13:33:20;13.70;99.90
25504;DHT22;13410;52.114;5.718;2023-04-25T13:35:47;13.90;99.90
25504;DHT22;13410;52.114;5.718;2023-04-25T13:38:24;14.30;99.90
25504;DHT22;13410;52.114;5.718;2023-04-25T13:40:51;14.00;99.90
25504;DHT22;13410;52.114;5.718;2023-04-25T13:43:19;13.20;99.90
25504;DHT22;13410;52.114;5.718;2023-04-25T13:45:45;13.10;99.90
25504;DHT22;13410;52.114;5.718;2023-04-25T13:48:11;12.70;99.90
25504;DHT22;13410;52.114;5.718;2023-04-25T13:50:36;12.40;99.90
25504;DHT22;13410;52.114;5.718;2023-04-25T13:53:02;12.50;99.90
25504;DHT22;13410;52.114;5.718;2023-04-25T13:55:28;12.20;99.90
25504;DHT22;13410;52.114;5.718;2023-04-25T13:57:53;11.90;99.90
25504;DHT22;13410;52.114;5.718;2023-04-25T14:00:19;11.90;99.90
25504;DHT22;13410;52.114;5.718;2023-04-25T14:02:45;11.90;99.90
25504;DHT22;13410;52.114;5.718;2023-04-25T14:05:11;11.80;99.90
25504;DHT22;13410;52.114;5.718;2023-04-25T14:07:36;12.00;99.90
25504;DHT22;13410;52.114;5.718;2023-04-25T14:10:03;12.20;99.90
25504;DHT22;13410;52.114;5.718;2023-04-25T14:12:29;12.40;99.90
25504;DHT22;13410;52.114;5.718;2023-04-25T14:14:55;12.80;99.90
25504;DHT22;13410;52.114;5.718;2023-04-25T14:17:21;13.10;99.90
25504;DHT22;13410;52.114;5.718;2023-04-25T14:19:46;13.20;99.90
25504;DHT22;13410;52.114;5.718;2023-04-25T14:22:14;13.10;99.90
25504;DHT22;13410;52.114;5.718;2023-04-25T14:24:40;13.00;99.90
25504;DHT22;13410;52.114;5.718;2023-04-25T14:27:05;13.30;99.90
25504;DHT22;13410;52.114;5.718;2023-04-25T14:29:31;13.50;99.90
25504;DHT22;13410;52.114;5.718;2023-04-25T14:31:57;13.20;99.90
25504;DHT22;13410;52.114;5.718;2023-04-25T14:34:24;12.60;99.90
25504;DHT22;13410;52.114;5.718;2023-04-25T14:36:51;12.00;99.90
25504;DHT22;13410;52.114;5.718;2023-04-25T14:39:16;12.00;99.90
25504;DHT22;13410;52.114;5.718;2023-04-25T14:41:42;12.30;99.90
25504;DHT22;13410;52.114;5.718;2023-04-25T14:44:08;12.70;99.90
25504;DHT22;13410;52.114;5.718;2023-04-25T14:46:33;13.30;99.90
25504;DHT22;13410;52.114;5.718;2023-04-25T14:48:59;13.90;99.90
25504;DHT22;13410;52.114;5.718;2023-04-25T14:51:25;14.20;99.90
25504;DHT22;13410;52.114;5.718;2023-04-25T14:53:51;14.40;99.90
25504;DHT22;13410;52.114;5.718;2023-04-25T14:56:17;14.30;99.90
25504;DHT22;13410;52.114;5.718;2023-04-25T14:58:43;13.80;99.90
25504;DHT22;13410;52.114;5.718;2023-04-25T15:01:11;13.00;99.90
25504;DHT22;13410;52.114;5.718;2023-04-25T15:03:36;12.10;99.90
25504;DHT22;13410;52.114;5.718;2023-04-25T15:06:02;11.70;99.90
25504;DHT22;13410;52.114;5.718;2023-04-25T15:08:27;11.60;99.90
25504;DHT22;13410;52.114;5.718;2023-04-25T15:10:54;11.70;99.90
25504;DHT22;13410;52.114;5.718;2023-04-25T15:13:20;11.70;99.90
25504;DHT22;13410;52.114;5.718;2023-04-25T15:15:46;11.70;99.90
25504;DHT22;13410;52.114;5.718;2023-04-25T15:18:19;11.90;99.90
25504;DHT22;13410;52.114;5.718;2023-04-25T15:20:48;12.10;99.90
25504;DHT22;13410;52.114;5.718;2023-04-25T15:23:13;12.20;99.90
25504;DHT22;13410;52.114;5.718;2023-04-25T15:25:39;12.50;99.90
25504;DHT22;13410;52.114;5.718;2023-04-25T15:28:04;12.50;99.90
25504;DHT22;13410;52.114;5.718;2023-04-25T15:30:30;12.30;99.90
25504;DHT22;13410;52.114;5.718;2023-04-25T15:32:55;12.10;99.90